Time,TemperatureF,DewpointF,PressureIn,WindDirection,WindDirectionDegrees,WindSpeedMPH,WindSpeedGustMPH,Humidity,HourlyPrecipIn,Conditions,Clouds,dailyrainin,SoftwareType,DateUTC
2013-08-07 00:03:00,50.7,23.4,30.24,South,180,2.0,2.0,34,0.00,,,0.00,meteohub,2013-08-07 07:03:00,
2013-08-07 00:08:00,50.4,23.0,30.23,South,180,1.0,2.0,34,0.00,,,0.00,meteohub,2013-08-07 07:08:00,
2013-08-07 00:13:00,50.2,22.8,30.24,South,180,1.0,2.0,34,0.00,,,0.00,meteohub,2013-08-07 07:13:00,
2013-08-07 00:18:00,50.0,22.6,30.24,South,180,1.0,2.0,34,0.00,,,0.00,meteohub,2013-08-07 07:18:00,
2013-08-07 00:23:00,50.0,23.4,30.23,South,180,1.0,2.0,35,0.00,,,0.00,meteohub,2013-08-07 07:23:00,
2013-08-07 00:28:00,49.8,23.2,30.23,South,180,0.0,2.0,35,0.00,,,0.00,meteohub,2013-08-07 07:28:00,
2013-08-07 00:33:00,49.8,23.2,30.23,South,180,0.0,2.0,35,0.00,,,0.00,meteohub,2013-08-07 07:33:00,
2013-08-07 00:38:00,49.6,23.7,30.24,South,180,0.0,2.0,36,0.00,,,0.00,meteohub,2013-08-07 07:38:00,
2013-08-07 00:43:00,49.5,23.5,30.23,South,180,0.0,1.0,36,0.00,,,0.00,meteohub,2013-08-07 07:43:00,
2013-08-07 00:48:00,48.9,22.5,30.23,South,180,1.0,1.0,35,0.00,,,0.00,meteohub,2013-08-07 07:48:00,
2013-08-07 00:53:00,48.7,23.0,30.23,South,180,0.0,2.0,36,0.00,,,0.00,meteohub,2013-08-07 07:53:00,
2013-08-07 00:58:00,48.7,23.0,30.23,South,180,1.0,2.0,36,0.00,,,0.00,meteohub,2013-08-07 07:58:00,
2013-08-07 01:03:00,48.7,23.5,30.23,South,180,0.0,2.0,37,0.00,,,0.00,meteohub,2013-08-07 08:03:00,
2013-08-07 01:08:00,48.7,23.5,30.23,South,180,1.0,2.0,37,0.00,,,0.00,meteohub,2013-08-07 08:08:00,
2013-08-07 01:13:00,48.9,23.7,30.23,South,180,1.0,2.0,37,0.00,,,0.00,meteohub,2013-08-07 08:13:00,
2013-08-07 01:18:00,48.7,23.5,30.23,South,180,1.0,1.0,37,0.00,,,0.00,meteohub,2013-08-07 08:18:00,
2013-08-07 01:23:00,48.4,23.9,30.23,South,180,0.0,2.0,38,0.00,,,0.00,meteohub,2013-08-07 08:23:00,
2013-08-07 01:28:00,48.2,23.7,30.22,South,180,2.0,2.0,38,0.00,,,0.00,meteohub,2013-08-07 08:28:00,
2013-08-07 01:33:00,47.7,22.6,30.22,South,180,1.0,2.0,37,0.00,,,0.00,meteohub,2013-08-07 08:33:00,
2013-08-07 01:38:00,47.8,23.5,30.23,South,180,0.0,2.0,38,0.00,,,0.00,meteohub,2013-08-07 08:38:00,
2013-08-07 01:44:00,47.8,22.8,30.22,South,180,2.0,2.0,37,0.00,,,0.00,meteohub,2013-08-07 08:44:00,
2013-08-07 01:49:00,47.7,22.6,30.22,South,180,1.0,2.0,37,0.00,,,0.00,meteohub,2013-08-07 08:49:00,
2013-08-07 01:54:00,47.5,23.7,30.22,South,180,1.0,2.0,39,0.00,,,0.00,meteohub,2013-08-07 08:54:00,
2013-08-07 01:59:00,47.5,24.4,30.22,South,180,0.0,2.0,40,0.00,,,0.00,meteohub,2013-08-07 08:59:00,
2013-08-07 02:04:00,47.5,24.4,30.22,South,180,0.0,1.0,40,0.00,,,0.00,meteohub,2013-08-07 09:04:00,
2013-08-07 02:09:00,47.7,23.9,30.22,South,180,0.0,1.0,39,0.00,,,0.00,meteohub,2013-08-07 09:09:00,
2013-08-07 02:14:00,48.2,24.4,30.22,South,180,0.0,1.0,39,0.00,,,0.00,meteohub,2013-08-07 09:14:00,
2013-08-07 02:19:00,48.4,24.6,30.23,South,180,0.0,1.0,39,0.00,,,0.00,meteohub,2013-08-07 09:19:00,
2013-08-07 02:24:00,48.4,24.6,30.22,South,180,0.0,1.0,39,0.00,,,0.00,meteohub,2013-08-07 09:24:00,
2013-08-07 02:29:00,48.2,24.4,30.22,South,180,1.0,1.0,39,0.00,,,0.00,meteohub,2013-08-07 09:29:00,
2013-08-07 02:34:00,47.8,24.1,30.22,South,180,0.0,1.0,39,0.00,,,0.00,meteohub,2013-08-07 09:34:00,
2013-08-07 02:39:00,47.7,24.4,30.22,South,180,0.0,2.0,40,0.00,,,0.00,meteohub,2013-08-07 09:39:00,
2013-08-07 02:44:00,47.3,24.3,30.22,South,180,2.0,2.0,40,0.00,,,0.00,meteohub,2013-08-07 09:44:00,
2013-08-07 02:49:00,46.9,24.4,30.22,South,180,2.0,2.0,41,0.00,,,0.00,meteohub,2013-08-07 09:49:00,
2013-08-07 02:54:00,46.4,23.9,30.22,South,180,0.0,2.0,41,0.00,,,0.00,meteohub,2013-08-07 09:54:00,
2013-08-07 02:59:00,46.2,23.9,30.22,South,180,2.0,2.0,41,0.00,,,0.00,meteohub,2013-08-07 09:59:00,
2013-08-07 03:04:00,46.0,23.7,30.22,South,180,1.0,2.0,41,0.00,,,0.00,meteohub,2013-08-07 10:04:00,
2013-08-07 03:09:00,45.9,23.5,30.21,South,180,1.0,2.0,41,0.00,,,0.00,meteohub,2013-08-07 10:09:00,
2013-08-07 03:14:00,45.5,23.2,30.21,South,180,2.0,2.0,41,0.00,,,0.00,meteohub,2013-08-07 10:14:00,
2013-08-07 03:19:00,45.9,24.1,30.21,South,180,1.0,2.0,42,0.00,,,0.00,meteohub,2013-08-07 10:19:00,
2013-08-07 03:24:00,45.7,23.4,30.21,South,180,0.0,2.0,41,0.00,,,0.00,meteohub,2013-08-07 10:24:00,
2013-08-07 03:29:00,45.9,24.1,30.21,South,180,1.0,2.0,42,0.00,,,0.00,meteohub,2013-08-07 10:29:00,
2013-08-07 03:34:00,45.7,23.4,30.20,South,180,1.0,2.0,41,0.00,,,0.00,meteohub,2013-08-07 10:34:00,
2013-08-07 03:39:00,45.9,24.1,30.20,East,90,2.0,2.0,42,0.00,,,0.00,meteohub,2013-08-07 10:39:00,
2013-08-07 03:44:00,46.2,23.9,30.20,East,90,2.0,4.0,41,0.00,,,0.00,meteohub,2013-08-07 10:44:00,
2013-08-07 03:49:00,46.0,24.3,30.21,East,90,1.0,4.0,42,0.00,,,0.00,meteohub,2013-08-07 10:49:00,
2013-08-07 03:54:00,46.6,23.0,30.20,East,90,3.0,4.0,39,0.00,,,0.00,meteohub,2013-08-07 10:54:00,
2013-08-07 03:59:00,47.7,23.4,30.20,East,90,2.0,3.0,38,0.00,,,0.00,meteohub,2013-08-07 10:59:00,
2013-08-07 04:04:00,48.4,22.6,30.20,East,90,1.0,3.0,36,0.00,,,0.00,meteohub,2013-08-07 11:04:00,
2013-08-07 04:09:00,49.3,21.4,30.20,East,90,0.0,3.0,33,0.00,,,0.00,meteohub,2013-08-07 11:09:00,
2013-08-07 04:14:00,50.4,21.6,30.20,East,90,1.0,3.0,32,0.00,,,0.00,meteohub,2013-08-07 11:14:00,
2013-08-07 04:19:00,50.9,22.1,30.20,East,90,1.0,1.0,32,0.00,,,0.00,meteohub,2013-08-07 11:19:00,
2013-08-07 04:27:00,51.3,20.8,30.20,East,90,2.0,3.0,30,0.00,,,0.00,meteohub,2013-08-07 11:27:00,
2013-08-07 04:32:00,51.6,21.2,30.20,East,90,1.0,3.0,30,0.00,,,0.00,meteohub,2013-08-07 11:32:00,
2013-08-07 04:37:00,51.6,21.2,30.20,East,90,1.0,2.0,30,0.00,,,0.00,meteohub,2013-08-07 11:37:00,
2013-08-07 04:42:00,51.6,20.3,30.20,East,90,1.0,2.0,29,0.00,,,0.00,meteohub,2013-08-07 11:42:00,
2013-08-07 04:47:00,51.8,20.5,30.20,East,90,2.0,2.0,29,0.00,,,0.00,meteohub,2013-08-07 11:47:00,
2013-08-07 04:52:00,52.0,19.9,30.20,East,90,1.0,2.0,28,0.00,,,0.00,meteohub,2013-08-07 11:52:00,
2013-08-07 04:57:00,52.2,20.1,30.20,East,90,1.0,2.0,28,0.00,,,0.00,meteohub,2013-08-07 11:57:00,
2013-08-07 05:02:00,52.3,20.1,30.20,East,90,2.0,2.0,28,0.00,,,0.00,meteohub,2013-08-07 12:02:00,
2013-08-07 05:07:00,52.2,20.1,30.20,East,90,1.0,2.0,28,0.00,,,0.00,meteohub,2013-08-07 12:07:00,
2013-08-07 05:12:00,52.0,19.9,30.20,East,90,1.0,2.0,28,0.00,,,0.00,meteohub,2013-08-07 12:12:00,
2013-08-07 05:17:00,51.8,18.9,30.21,East,90,0.0,2.0,27,0.00,,,0.00,meteohub,2013-08-07 12:17:00,
2013-08-07 05:22:00,51.8,19.8,30.20,East,90,1.0,1.0,28,0.00,,,0.00,meteohub,2013-08-07 12:22:00,
2013-08-07 05:27:00,51.6,19.6,30.20,East,90,1.0,1.0,28,0.00,,,0.00,meteohub,2013-08-07 12:27:00,
2013-08-07 05:32:00,51.4,20.3,30.20,East,90,0.0,2.0,29,0.00,,,0.00,meteohub,2013-08-07 12:32:00,
2013-08-07 05:37:00,51.1,19.9,30.20,East,90,2.0,2.0,29,0.00,,,0.00,meteohub,2013-08-07 12:37:00,
2013-08-07 05:42:00,50.9,18.9,30.20,East,90,0.0,2.0,28,0.00,,,0.00,meteohub,2013-08-07 12:42:00,
2013-08-07 05:47:00,50.7,18.9,30.20,SW,225,2.0,2.0,28,0.00,,,0.00,meteohub,2013-08-07 12:47:00,
2013-08-07 05:52:00,51.4,17.6,30.20,North,0,2.0,7.0,26,0.00,,,0.00,meteohub,2013-08-07 12:52:00,
2013-08-07 05:57:00,52.0,16.3,30.20,North,0,4.0,7.0,24,0.00,,,0.00,meteohub,2013-08-07 12:57:00,
2013-08-07 06:02:00,52.5,16.7,30.20,North,0,2.0,5.0,24,0.00,,,0.00,meteohub,2013-08-07 13:02:00,
2013-08-07 06:07:00,52.5,15.8,30.20,West,270,5.0,5.0,23,0.00,,,0.00,meteohub,2013-08-07 13:07:00,
2013-08-07 06:12:00,52.9,17.1,30.20,East,90,4.0,5.0,24,0.00,,,0.00,meteohub,2013-08-07 13:12:00,
2013-08-07 06:17:00,52.9,18.0,30.20,East,90,2.0,5.0,25,0.00,,,0.00,meteohub,2013-08-07 13:17:00,
2013-08-07 06:22:00,52.9,16.2,30.20,East,90,1.0,5.0,23,0.00,,,0.00,meteohub,2013-08-07 13:22:00,
2013-08-07 06:27:00,53.1,15.3,30.20,East,90,3.0,4.0,22,0.00,,,0.00,meteohub,2013-08-07 13:27:00,
2013-08-07 06:32:00,53.6,14.5,30.20,West,270,3.0,3.0,21,0.00,,,0.00,meteohub,2013-08-07 13:32:00,
2013-08-07 06:37:00,54.5,15.3,30.20,North,0,4.0,4.0,21,0.00,,,0.00,meteohub,2013-08-07 13:37:00,
2013-08-07 06:42:00,55.6,17.2,30.20,SE,135,1.0,4.0,22,0.00,,,0.00,meteohub,2013-08-07 13:42:00,
2013-08-07 06:47:00,56.7,17.2,30.21,SE,135,2.0,4.0,21,0.00,,,0.00,meteohub,2013-08-07 13:47:00,
2013-08-07 06:52:00,57.7,18.1,30.20,East,90,3.0,4.0,21,0.00,,,0.00,meteohub,2013-08-07 13:52:00,
2013-08-07 06:57:00,59.2,16.9,30.21,West,270,3.0,4.0,19,0.00,,,0.00,meteohub,2013-08-07 13:57:00,
2013-08-07 07:02:00,60.4,15.4,30.21,West,270,4.0,5.0,17,0.00,,,0.00,meteohub,2013-08-07 14:02:00,
2013-08-07 07:07:00,61.5,16.3,30.21,NNE,23,2.0,8.0,17,0.00,,,0.00,meteohub,2013-08-07 14:07:00,
2013-08-07 07:12:00,62.2,16.9,30.21,South,180,2.0,8.0,17,0.00,,,0.00,meteohub,2013-08-07 14:12:00,
2013-08-07 07:17:00,62.6,15.8,30.21,West,270,3.0,9.0,16,0.00,,,0.00,meteohub,2013-08-07 14:17:00,
2013-08-07 07:22:00,63.0,16.0,30.21,NE,45,2.0,9.0,16,0.00,,,0.00,meteohub,2013-08-07 14:22:00,
2013-08-07 07:27:00,63.9,15.3,30.21,East,90,4.0,9.0,15,0.00,,,0.00,meteohub,2013-08-07 14:27:00,
2013-08-07 07:32:00,64.8,16.0,30.21,South,180,4.0,6.0,15,0.00,,,0.00,meteohub,2013-08-07 14:32:00,
2013-08-07 07:37:00,65.1,14.7,30.21,NE,45,4.0,6.0,14,0.00,,,0.00,meteohub,2013-08-07 14:37:00,
2013-08-07 07:42:00,64.9,16.2,30.21,North,0,2.0,6.0,15,0.00,,,0.00,meteohub,2013-08-07 14:42:00,
2013-08-07 07:47:00,64.8,16.0,30.22,SW,225,2.0,6.0,15,0.00,,,0.00,meteohub,2013-08-07 14:47:00,
2013-08-07 07:52:00,65.1,16.3,30.22,South,180,4.0,7.0,15,0.00,,,0.00,meteohub,2013-08-07 14:52:00,
2013-08-07 07:57:00,66.0,15.4,30.22,SW,225,6.0,7.0,14,0.00,,,0.00,meteohub,2013-08-07 14:57:00,
2013-08-07 08:02:00,66.0,15.4,30.22,SE,135,2.0,6.0,14,0.00,,,0.00,meteohub,2013-08-07 15:02:00,
2013-08-07 08:07:00,66.2,17.2,30.22,South,180,3.0,6.0,15,0.00,,,0.00,meteohub,2013-08-07 15:07:00,
2013-08-07 08:12:00,66.7,17.6,30.22,SE,135,2.0,8.0,15,0.00,,,0.00,meteohub,2013-08-07 15:12:00,
2013-08-07 08:17:00,67.5,14.9,30.22,South,180,4.0,8.0,13,0.00,,,0.00,meteohub,2013-08-07 15:17:00,
2013-08-07 08:22:00,67.8,15.1,30.22,SW,225,4.0,8.0,13,0.00,,,0.00,meteohub,2013-08-07 15:22:00,
2013-08-07 08:27:00,68.2,17.2,30.22,South,180,7.0,7.0,14,0.00,,,0.00,meteohub,2013-08-07 15:27:00,
2013-08-07 08:32:00,68.5,15.8,30.22,SSE,158,2.0,7.0,13,0.00,,,0.00,meteohub,2013-08-07 15:32:00,
2013-08-07 08:37:00,69.3,16.3,30.22,South,180,3.0,7.0,13,0.00,,,0.00,meteohub,2013-08-07 15:37:00,
2013-08-07 08:42:00,69.6,16.5,30.23,West,270,2.0,7.0,13,0.00,,,0.00,meteohub,2013-08-07 15:42:00,
2013-08-07 08:47:00,70.2,18.7,30.22,SW,225,2.0,9.0,14,0.00,,,0.00,meteohub,2013-08-07 15:47:00,
2013-08-07 08:52:00,70.3,17.2,30.23,SW,225,5.0,9.0,13,0.00,,,0.00,meteohub,2013-08-07 15:52:00,
2013-08-07 08:57:00,70.3,15.3,30.23,West,270,8.0,9.0,12,0.00,,,0.00,meteohub,2013-08-07 15:57:00,
2013-08-07 09:02:00,70.0,16.9,30.23,SW,225,2.0,8.0,13,0.00,,,0.00,meteohub,2013-08-07 16:02:00,
2013-08-07 09:07:00,70.3,15.3,30.23,South,180,2.0,8.0,12,0.00,,,0.00,meteohub,2013-08-07 16:07:00,
2013-08-07 09:12:00,70.7,15.6,30.22,SSE,158,3.0,8.0,12,0.00,,,0.00,meteohub,2013-08-07 16:12:00,
2013-08-07 09:17:00,71.1,15.8,30.23,SW,225,4.0,8.0,12,0.00,,,0.00,meteohub,2013-08-07 16:17:00,
2013-08-07 09:22:00,70.9,15.8,30.23,West,270,6.0,7.0,12,0.00,,,0.00,meteohub,2013-08-07 16:22:00,
2013-08-07 09:27:00,71.1,15.8,30.22,South,180,3.0,8.0,12,0.00,,,0.00,meteohub,2013-08-07 16:27:00,
2013-08-07 09:32:00,71.6,18.1,30.23,SW,225,4.0,8.0,13,0.00,,,0.00,meteohub,2013-08-07 16:32:00,
2013-08-07 09:37:00,72.0,16.5,30.23,NE,45,8.0,8.0,12,0.00,,,0.00,meteohub,2013-08-07 16:37:00,
2013-08-07 09:42:00,72.1,16.7,30.23,NE,45,4.0,8.0,12,0.00,,,0.00,meteohub,2013-08-07 16:42:00,
2013-08-07 09:47:00,72.0,16.5,30.23,South,180,4.0,8.0,12,0.00,,,0.00,meteohub,2013-08-07 16:47:00,
2013-08-07 09:52:00,72.1,16.7,30.23,SSW,203,3.0,11.0,12,0.00,,,0.00,meteohub,2013-08-07 16:52:00,
2013-08-07 09:57:00,72.1,16.7,30.24,South,180,4.0,14.0,12,0.00,,,0.00,meteohub,2013-08-07 16:57:00,
2013-08-07 10:02:00,72.1,14.7,30.24,SW,225,8.0,14.0,11,0.00,,,0.00,meteohub,2013-08-07 17:02:00,
2013-08-07 10:07:00,72.1,14.7,30.24,East,90,3.0,14.0,11,0.00,,,0.00,meteohub,2013-08-07 17:07:00,
2013-08-07 10:12:00,72.3,14.9,30.24,SSW,203,4.0,11.0,11,0.00,,,0.00,meteohub,2013-08-07 17:12:00,
2013-08-07 10:17:00,73.2,15.6,30.24,SW,225,3.0,8.0,11,0.00,,,0.00,meteohub,2013-08-07 17:17:00,
2013-08-07 10:22:00,73.9,18.1,30.24,South,180,8.0,8.0,12,0.00,,,0.00,meteohub,2013-08-07 17:22:00,
2013-08-07 10:27:00,74.5,18.5,30.24,South,180,4.0,8.0,12,0.00,,,0.00,meteohub,2013-08-07 17:27:00,
2013-08-07 10:32:00,74.8,18.9,30.24,SW,225,5.0,8.0,12,0.00,,,0.00,meteohub,2013-08-07 17:32:00,
2013-08-07 10:37:00,75.2,19.0,30.24,SW,225,5.0,8.0,12,0.00,,,0.00,meteohub,2013-08-07 17:37:00,
2013-08-07 10:42:00,75.2,21.0,30.25,SW,225,3.0,8.0,13,0.00,,,0.00,meteohub,2013-08-07 17:42:00,
2013-08-07 10:47:00,75.2,21.0,30.25,East,90,1.0,6.0,13,0.00,,,0.00,meteohub,2013-08-07 17:47:00,
2013-08-07 10:52:00,75.4,21.2,30.25,West,270,5.0,6.0,13,0.00,,,0.00,meteohub,2013-08-07 17:52:00,
2013-08-07 10:57:00,76.1,21.7,30.25,South,180,4.0,5.0,13,0.00,,,0.00,meteohub,2013-08-07 17:57:00,
2013-08-07 11:02:00,76.6,22.1,30.25,SW,225,4.0,5.0,13,0.00,,,0.00,meteohub,2013-08-07 18:02:00,
2013-08-07 11:07:00,76.6,23.9,30.25,South,180,0.0,5.0,14,0.00,,,0.00,meteohub,2013-08-07 18:07:00,
2013-08-07 11:12:00,77.2,24.3,30.25,South,180,4.0,5.0,14,0.00,,,0.00,meteohub,2013-08-07 18:12:00,
2013-08-07 11:17:00,77.4,22.6,30.25,South,180,4.0,5.0,13,0.00,,,0.00,meteohub,2013-08-07 18:17:00,
2013-08-07 11:22:00,76.8,24.1,30.25,SW,225,2.0,6.0,14,0.00,,,0.00,meteohub,2013-08-07 18:22:00,
2013-08-07 11:27:00,76.8,25.7,30.25,ESE,113,4.0,6.0,15,0.00,,,0.00,meteohub,2013-08-07 18:27:00,
2013-08-07 11:32:00,77.2,24.3,30.25,SW,225,4.0,6.0,14,0.00,,,0.00,meteohub,2013-08-07 18:32:00,
2013-08-07 11:37:00,76.8,24.1,30.25,SSW,203,4.0,7.0,14,0.00,,,0.00,meteohub,2013-08-07 18:37:00,
2013-08-07 11:42:00,77.2,27.5,30.25,NE,45,4.0,7.0,16,0.00,,,0.00,meteohub,2013-08-07 18:42:00,
2013-08-07 11:47:00,77.4,26.1,30.25,East,90,5.0,5.0,15,0.00,,,0.00,meteohub,2013-08-07 18:47:00,
2013-08-07 11:52:00,77.4,27.7,30.25,NE,45,3.0,7.0,16,0.00,,,0.00,meteohub,2013-08-07 18:52:00,
2013-08-07 11:57:00,77.5,26.2,30.25,West,270,3.0,11.0,15,0.00,,,0.00,meteohub,2013-08-07 18:57:00,
2013-08-07 12:02:00,77.7,26.4,30.25,North,0,3.0,11.0,15,0.00,,,0.00,meteohub,2013-08-07 19:02:00,
2013-08-07 12:07:00,77.9,28.0,30.24,NE,45,2.0,11.0,16,0.00,,,0.00,meteohub,2013-08-07 19:07:00,
2013-08-07 12:12:00,78.8,28.8,30.25,NE,45,4.0,7.0,16,0.00,,,0.00,meteohub,2013-08-07 19:12:00,
2013-08-07 12:17:00,78.4,27.0,30.25,West,270,3.0,7.0,15,0.00,,,0.00,meteohub,2013-08-07 19:17:00,
2013-08-07 12:22:00,78.6,27.1,30.25,SW,225,3.0,6.0,15,0.00,,,0.00,meteohub,2013-08-07 19:22:00,
2013-08-07 12:27:00,78.3,29.8,30.25,West,270,5.0,5.0,17,0.00,,,0.00,meteohub,2013-08-07 19:27:00,
2013-08-07 12:32:00,78.1,29.7,30.25,West,270,2.0,5.0,17,0.00,,,0.00,meteohub,2013-08-07 19:32:00,
2013-08-07 12:37:00,77.7,29.5,30.25,West,270,4.0,5.0,17,0.00,,,0.00,meteohub,2013-08-07 19:37:00,
2013-08-07 12:42:00,77.7,29.5,30.25,NE,45,2.0,8.0,17,0.00,,,0.00,meteohub,2013-08-07 19:42:00,
2013-08-07 12:47:00,78.4,30.0,30.25,North,0,4.0,8.0,17,0.00,,,0.00,meteohub,2013-08-07 19:47:00,
2013-08-07 12:52:00,79.0,30.4,30.25,South,180,9.0,9.0,17,0.00,,,0.00,meteohub,2013-08-07 19:52:00,
2013-08-07 12:53:00,78.3,31.3,30.25,SSW,203,8.0,8.0,18,0.00,,,0.00,meteohub,2013-08-07 19:53:00,
2013-08-07 12:57:00,78.3,31.3,30.25,East,90,3.0,9.0,18,0.00,,,0.00,meteohub,2013-08-07 19:57:00,
2013-08-07 13:02:00,78.8,31.6,30.25,South,180,4.0,9.0,18,0.00,,,0.00,meteohub,2013-08-07 20:02:00,
2013-08-07 13:07:00,78.6,31.6,30.25,SSW,203,2.0,9.0,18,0.00,,,0.00,meteohub,2013-08-07 20:07:00,
2013-08-07 13:12:00,78.8,31.6,30.25,West,270,4.0,7.0,18,0.00,,,0.00,meteohub,2013-08-07 20:12:00,
2013-08-07 13:17:00,78.8,33.1,30.25,WNW,293,5.0,6.0,19,0.00,,,0.00,meteohub,2013-08-07 20:17:00,
2013-08-07 13:22:00,79.2,32.0,30.25,SW,225,2.0,6.0,18,0.00,,,0.00,meteohub,2013-08-07 20:22:00,
2013-08-07 13:27:00,79.3,32.2,30.25,SW,225,4.0,8.0,18,0.00,,,0.00,meteohub,2013-08-07 20:27:00,
2013-08-07 13:32:00,79.0,31.8,30.25,WSW,248,4.0,8.0,18,0.00,,,0.00,meteohub,2013-08-07 20:32:00,
2013-08-07 13:37:00,79.0,31.8,30.25,SW,225,4.0,8.0,18,0.00,,,0.00,meteohub,2013-08-07 20:37:00,
2013-08-07 13:42:00,78.6,32.9,30.25,SW,225,4.0,8.0,19,0.00,,,0.00,meteohub,2013-08-07 20:42:00,
2013-08-07 13:47:00,77.5,32.0,30.25,North,0,5.0,7.0,19,0.00,,,0.00,meteohub,2013-08-07 20:47:00,
2013-08-07 13:52:00,77.5,32.0,30.25,NNE,23,5.0,6.0,19,0.00,,,0.00,meteohub,2013-08-07 20:52:00,
2013-08-07 13:57:00,77.9,32.4,30.25,West,270,3.0,6.0,19,0.00,,,0.00,meteohub,2013-08-07 20:57:00,
2013-08-07 14:02:00,78.1,31.1,30.25,West,270,4.0,6.0,18,0.00,,,0.00,meteohub,2013-08-07 21:02:00,
2013-08-07 14:07:00,78.1,32.5,30.25,SW,225,3.0,6.0,19,0.00,,,0.00,meteohub,2013-08-07 21:07:00,
2013-08-07 14:12:00,78.4,32.7,30.25,South,180,4.0,6.0,19,0.00,,,0.00,meteohub,2013-08-07 21:12:00,
2013-08-07 14:16:00,78.1,31.1,30.25,South,180,4.0,8.0,18,0.00,,,0.00,meteohub,2013-08-07 21:16:00,
2013-08-07 14:22:00,78.3,31.3,30.25,South,180,2.0,8.0,18,0.00,,,0.00,meteohub,2013-08-07 21:22:00,
2013-08-07 14:27:00,78.3,31.3,30.25,SE,135,4.0,8.0,18,0.00,,,0.00,meteohub,2013-08-07 21:27:00,
2013-08-07 14:32:00,78.6,31.6,30.25,SSW,203,2.0,8.0,18,0.00,,,0.00,meteohub,2013-08-07 21:32:00,
2013-08-07 14:37:00,78.4,31.5,30.25,SW,225,6.0,7.0,18,0.00,,,0.00,meteohub,2013-08-07 21:37:00,
2013-08-07 14:42:00,78.1,31.1,30.25,South,180,6.0,9.0,18,0.00,,,0.00,meteohub,2013-08-07 21:42:00,
2013-08-07 14:47:00,77.9,30.9,30.25,SSW,203,3.0,9.0,18,0.00,,,0.00,meteohub,2013-08-07 21:47:00,
2013-08-07 14:52:00,78.3,31.3,30.25,SW,225,4.0,9.0,18,0.00,,,0.00,meteohub,2013-08-07 21:52:00,
2013-08-07 14:57:00,78.8,31.6,30.25,SW,225,6.0,8.0,18,0.00,,,0.00,meteohub,2013-08-07 21:57:00,
2013-08-07 15:02:00,78.3,31.3,30.24,SE,135,4.0,7.0,18,0.00,,,0.00,meteohub,2013-08-07 22:02:00,
2013-08-07 15:07:00,77.5,30.7,30.24,SE,135,9.0,10.0,18,0.00,,,0.00,meteohub,2013-08-07 22:07:00,
2013-08-07 15:12:00,77.0,30.2,30.25,South,180,4.0,10.0,18,0.00,,,0.00,meteohub,2013-08-07 22:12:00,
2013-08-07 15:17:00,77.0,31.6,30.25,West,270,4.0,10.0,19,0.00,,,0.00,meteohub,2013-08-07 22:17:00,
2013-08-07 15:22:00,77.0,31.6,30.24,South,180,4.0,9.0,19,0.00,,,0.00,meteohub,2013-08-07 22:22:00,
2013-08-07 15:27:00,77.0,31.6,30.24,SW,225,4.0,8.0,19,0.00,,,0.00,meteohub,2013-08-07 22:27:00,
2013-08-07 15:32:00,75.9,29.3,30.24,SW,225,4.0,9.0,18,0.00,,,0.00,meteohub,2013-08-07 22:32:00,
2013-08-07 15:37:00,74.8,28.4,30.24,SW,225,5.0,9.0,18,0.00,,,0.00,meteohub,2013-08-07 22:37:00,
2013-08-07 15:42:00,74.8,29.8,30.24,SW,225,2.0,9.0,19,0.00,,,0.00,meteohub,2013-08-07 22:42:00,
2013-08-07 15:47:00,75.0,30.0,30.23,NE,45,6.0,9.0,19,0.00,,,0.00,meteohub,2013-08-07 22:47:00,
2013-08-07 15:52:00,74.8,29.8,30.23,South,180,4.0,9.0,19,0.00,,,0.00,meteohub,2013-08-07 22:52:00,
2013-08-07 15:57:00,75.0,30.0,30.23,West,270,3.0,6.0,19,0.00,,,0.00,meteohub,2013-08-07 22:57:00,
2013-08-07 16:02:00,74.8,29.8,30.23,South,180,6.0,6.0,19,0.00,,,0.00,meteohub,2013-08-07 23:02:00,
2013-08-07 16:07:00,75.0,30.0,30.23,South,180,4.0,8.0,19,0.00,,,0.00,meteohub,2013-08-07 23:07:00,
2013-08-07 16:12:00,74.8,31.1,30.23,North,0,3.0,8.0,20,0.00,,,0.00,meteohub,2013-08-07 23:12:00,
2013-08-07 16:17:00,74.7,30.9,30.23,South,180,7.0,8.0,20,0.00,,,0.00,meteohub,2013-08-07 23:17:00,
2013-08-07 16:22:00,74.3,30.6,30.23,South,180,3.0,8.0,20,0.00,,,0.00,meteohub,2013-08-07 23:22:00,
2013-08-07 16:27:00,74.3,30.6,30.23,SW,225,4.0,9.0,20,0.00,,,0.00,meteohub,2013-08-07 23:27:00,
2013-08-07 16:32:00,73.8,30.2,30.23,SW,225,4.0,9.0,20,0.00,,,0.00,meteohub,2013-08-07 23:32:00,
2013-08-07 16:37:00,73.0,29.7,30.23,SW,225,5.0,9.0,20,0.00,,,0.00,meteohub,2013-08-07 23:37:00,
2013-08-07 16:42:00,73.2,29.7,30.23,SE,135,4.0,8.0,20,0.00,,,0.00,meteohub,2013-08-07 23:42:00,
2013-08-07 16:47:00,73.0,29.7,30.23,SW,225,2.0,8.0,20,0.00,,,0.00,meteohub,2013-08-07 23:47:00,
2013-08-07 16:52:00,73.0,29.7,30.23,West,270,7.0,8.0,20,0.00,,,0.00,meteohub,2013-08-07 23:52:00,
2013-08-07 16:58:00,73.0,28.4,30.23,South,180,4.0,7.0,19,0.00,,,0.00,meteohub,2013-08-07 23:58:00,
2013-08-07 17:03:00,72.7,29.3,30.23,SW,225,4.0,7.0,20,0.00,,,0.00,meteohub,2013-08-08 00:03:00,
2013-08-07 17:08:00,72.3,28.9,30.23,SE,135,11.0,11.0,20,0.00,,,0.00,meteohub,2013-08-08 00:08:00,
2013-08-07 17:13:00,72.1,28.8,30.23,South,180,4.0,11.0,20,0.00,,,0.00,meteohub,2013-08-08 00:13:00,
2013-08-07 17:18:00,72.1,28.8,30.23,South,180,3.0,11.0,20,0.00,,,0.00,meteohub,2013-08-08 00:18:00,
2013-08-07 17:23:00,72.1,28.8,30.23,East,90,4.0,11.0,20,0.00,,,0.00,meteohub,2013-08-08 00:23:00,
2013-08-07 17:28:00,71.8,28.6,30.22,SSE,158,5.0,6.0,20,0.00,,,0.00,meteohub,2013-08-08 00:28:00,
2013-08-07 17:33:00,71.6,29.7,30.22,North,0,3.0,9.0,21,0.00,,,0.00,meteohub,2013-08-08 00:33:00,
2013-08-07 17:38:00,71.8,28.6,30.22,SW,225,4.0,9.0,20,0.00,,,0.00,meteohub,2013-08-08 00:38:00,
2013-08-07 17:43:00,71.8,29.7,30.22,South,180,4.0,9.0,21,0.00,,,0.00,meteohub,2013-08-08 00:43:00,
2013-08-07 17:48:00,71.2,29.3,30.22,SE,135,4.0,5.0,21,0.00,,,0.00,meteohub,2013-08-08 00:48:00,
2013-08-07 17:53:00,70.9,28.9,30.22,South,180,4.0,6.0,21,0.00,,,0.00,meteohub,2013-08-08 00:53:00,
2013-08-07 17:58:00,70.7,30.0,30.22,SW,225,5.0,11.0,22,0.00,,,0.00,meteohub,2013-08-08 00:58:00,
2013-08-07 18:03:00,70.7,28.8,30.22,SSW,203,3.0,11.0,21,0.00,,,0.00,meteohub,2013-08-08 01:03:00,
2013-08-07 18:08:00,70.5,28.8,30.22,South,180,4.0,11.0,21,0.00,,,0.00,meteohub,2013-08-08 01:08:00,
2013-08-07 18:13:00,69.6,29.1,30.22,SE,135,2.0,8.0,22,0.00,,,0.00,meteohub,2013-08-08 01:13:00,
2013-08-07 18:18:00,69.3,28.8,30.22,South,180,3.0,8.0,22,0.00,,,0.00,meteohub,2013-08-08 01:18:00,
2013-08-07 18:23:00,69.3,28.8,30.22,SW,225,3.0,8.0,22,0.00,,,0.00,meteohub,2013-08-08 01:23:00,
2013-08-07 18:25:00,69.3,28.8,30.22,SSW,203,2.0,6.0,22,0.00,,,0.00,meteohub,2013-08-08 01:25:00,
2013-08-07 18:30:00,69.1,28.6,30.22,SW,225,1.0,6.0,22,0.00,,,0.00,meteohub,2013-08-08 01:30:00,
2013-08-07 18:35:00,68.5,28.2,30.22,South,180,3.0,4.0,22,0.00,,,0.00,meteohub,2013-08-08 01:35:00,
2013-08-07 18:40:00,68.0,28.8,30.22,SSW,203,0.0,4.0,23,0.00,,,0.00,meteohub,2013-08-08 01:40:00,
2013-08-07 18:45:00,67.5,28.4,30.22,South,180,3.0,3.0,23,0.00,,,0.00,meteohub,2013-08-08 01:45:00,
2013-08-07 18:50:00,66.7,28.8,30.23,West,270,2.0,4.0,24,0.00,,,0.00,meteohub,2013-08-08 01:50:00,
2013-08-07 18:55:00,66.6,28.6,30.23,West,270,2.0,4.0,24,0.00,,,0.00,meteohub,2013-08-08 01:55:00,
2013-08-07 19:00:00,66.2,29.3,30.23,West,270,2.0,5.0,25,0.00,,,0.00,meteohub,2013-08-08 02:00:00,
2013-08-07 19:05:00,65.8,28.9,30.22,SW,225,0.0,5.0,25,0.00,,,0.00,meteohub,2013-08-08 02:05:00,
2013-08-07 19:10:00,65.7,28.9,30.23,West,270,2.0,5.0,25,0.00,,,0.00,meteohub,2013-08-08 02:10:00,
2013-08-07 19:15:00,65.3,28.6,30.22,SE,135,1.0,5.0,25,0.00,,,0.00,meteohub,2013-08-08 02:15:00,
2013-08-07 19:20:00,64.8,28.0,30.22,SE,135,1.0,5.0,25,0.00,,,0.00,meteohub,2013-08-08 02:20:00,
2013-08-07 19:25:00,63.7,28.2,30.22,SE,135,3.0,3.0,26,0.00,,,0.00,meteohub,2013-08-08 02:25:00,
2013-08-07 19:30:00,63.1,27.7,30.22,SE,135,0.0,6.0,26,0.00,,,0.00,meteohub,2013-08-08 02:30:00,
2013-08-07 19:35:00,62.6,27.1,30.23,NE,45,2.0,6.0,26,0.00,,,0.00,meteohub,2013-08-08 02:35:00,
2013-08-07 19:40:00,62.2,27.9,30.22,NE,45,0.0,3.0,27,0.00,,,0.00,meteohub,2013-08-08 02:40:00,
2013-08-07 19:45:00,61.7,27.3,30.22,East,90,2.0,3.0,27,0.00,,,0.00,meteohub,2013-08-08 02:45:00,
2013-08-07 19:50:00,61.3,27.9,30.22,East,90,2.0,3.0,28,0.00,,,0.00,meteohub,2013-08-08 02:50:00,
2013-08-07 19:55:00,61.0,27.7,30.22,East,90,0.0,3.0,28,0.00,,,0.00,meteohub,2013-08-08 02:55:00,
2013-08-07 20:00:00,60.8,27.5,30.23,East,90,4.0,4.0,28,0.00,,,0.00,meteohub,2013-08-08 03:00:00,
2013-08-07 20:05:00,60.4,27.1,30.22,East,90,0.0,4.0,28,0.00,,,0.00,meteohub,2013-08-08 03:05:00,
2013-08-07 20:10:00,60.1,26.8,30.22,East,90,0.0,4.0,28,0.00,,,0.00,meteohub,2013-08-08 03:10:00,
2013-08-07 20:15:00,59.9,26.8,30.22,East,90,0.0,4.0,28,0.00,,,0.00,meteohub,2013-08-08 03:15:00,
2013-08-07 20:20:00,59.7,26.6,30.22,East,90,0.0,0.0,28,0.00,,,0.00,meteohub,2013-08-08 03:20:00,
2013-08-07 20:25:00,59.5,26.4,30.22,East,90,0.0,0.0,28,0.00,,,0.00,meteohub,2013-08-08 03:25:00,
2013-08-07 20:30:00,59.4,26.2,30.23,East,90,0.0,0.0,28,0.00,,,0.00,meteohub,2013-08-08 03:30:00,
2013-08-07 20:36:00,59.2,26.1,30.22,East,90,0.0,0.0,28,0.00,,,0.00,meteohub,2013-08-08 03:36:00,
2013-08-07 20:41:00,59.0,25.9,30.23,East,90,0.0,0.0,28,0.00,,,0.00,meteohub,2013-08-08 03:41:00,
2013-08-07 20:46:00,58.6,25.7,30.23,East,90,0.0,0.0,28,0.00,,,0.00,meteohub,2013-08-08 03:46:00,
2013-08-07 20:51:00,58.5,25.5,30.23,East,90,0.0,0.0,28,0.00,,,0.00,meteohub,2013-08-08 03:51:00,
2013-08-07 20:56:00,58.3,25.3,30.23,East,90,0.0,0.0,28,0.00,,,0.00,meteohub,2013-08-08 03:56:00,
2013-08-07 21:01:00,57.9,25.0,30.23,East,90,0.0,0.0,28,0.00,,,0.00,meteohub,2013-08-08 04:01:00,
2013-08-07 21:06:00,57.7,24.8,30.23,East,90,0.0,0.0,28,0.00,,,0.00,meteohub,2013-08-08 04:06:00,
2013-08-07 21:11:00,57.6,24.6,30.23,East,90,0.0,2.0,28,0.00,,,0.00,meteohub,2013-08-08 04:11:00,
2013-08-07 21:16:00,57.2,24.4,30.23,East,90,0.0,2.0,28,0.00,,,0.00,meteohub,2013-08-08 04:16:00,
2013-08-07 21:21:00,57.0,24.3,30.23,East,90,0.0,2.0,28,0.00,,,0.00,meteohub,2013-08-08 04:21:00,
2013-08-07 21:26:00,57.0,24.3,30.23,SW,225,1.0,0.0,28,0.00,,,0.00,meteohub,2013-08-08 04:26:00,
2013-08-07 21:31:00,57.0,25.0,30.23,SW,225,0.0,3.0,29,0.00,,,0.00,meteohub,2013-08-08 04:31:00,
2013-08-07 21:36:00,57.0,24.3,30.23,SW,225,0.0,3.0,28,0.00,,,0.00,meteohub,2013-08-08 04:36:00,
2013-08-07 21:41:00,57.0,24.3,30.23,SW,225,0.0,2.0,28,0.00,,,0.00,meteohub,2013-08-08 04:41:00,
2013-08-07 21:46:00,57.0,24.3,30.23,SW,225,0.0,2.0,28,0.00,,,0.00,meteohub,2013-08-08 04:46:00,
2013-08-07 21:51:00,57.2,25.2,30.23,SW,225,0.0,2.0,29,0.00,,,0.00,meteohub,2013-08-08 04:51:00,
2013-08-07 21:56:00,56.8,25.0,30.23,SW,225,0.0,0.0,29,0.00,,,0.00,meteohub,2013-08-08 04:56:00,
2013-08-07 22:01:00,56.5,24.6,30.23,SW,225,0.0,0.0,29,0.00,,,0.00,meteohub,2013-08-08 05:01:00,
2013-08-07 22:06:00,56.1,24.3,30.23,SW,225,0.0,0.0,29,0.00,,,0.00,meteohub,2013-08-08 05:06:00,
2013-08-07 22:11:00,55.8,24.8,30.23,SW,225,2.0,0.0,30,0.00,,,0.00,meteohub,2013-08-08 05:11:00,
2013-08-07 22:16:00,55.8,24.8,30.23,SW,225,0.0,2.0,30,0.00,,,0.00,meteohub,2013-08-08 05:16:00,
2013-08-07 22:21:00,55.4,23.7,30.22,SW,225,0.0,2.0,29,0.00,,,0.00,meteohub,2013-08-08 05:21:00,
2013-08-07 22:26:00,55.2,24.3,30.23,SE,135,3.0,3.0,30,0.00,,,0.00,meteohub,2013-08-08 05:26:00,
2013-08-07 22:32:00,54.9,24.1,30.22,SSW,203,0.0,3.0,30,0.00,,,0.00,meteohub,2013-08-08 05:32:00,
2013-08-07 22:37:00,55.0,24.1,30.22,SSW,203,0.0,3.0,30,0.00,,,0.00,meteohub,2013-08-08 05:37:00,
2013-08-07 22:42:00,55.2,24.3,30.22,SSW,203,0.0,3.0,30,0.00,,,0.00,meteohub,2013-08-08 05:42:00,
2013-08-07 22:47:00,55.4,24.4,30.22,SSW,203,0.0,0.0,30,0.00,,,0.00,meteohub,2013-08-08 05:47:00,
2013-08-07 22:52:00,55.6,24.6,30.22,SSW,203,0.0,0.0,30,0.00,,,0.00,meteohub,2013-08-08 05:52:00,
2013-08-07 22:57:00,55.8,24.8,30.22,SSW,203,0.0,2.0,30,0.00,,,0.00,meteohub,2013-08-08 05:57:00,
2013-08-07 23:02:00,55.8,24.8,30.22,SSW,203,0.0,2.0,30,0.00,,,0.00,meteohub,2013-08-08 06:02:00,
2013-08-07 23:07:00,55.8,24.8,30.22,SSW,203,0.0,0.0,30,0.00,,,0.00,meteohub,2013-08-08 06:07:00,
2013-08-07 23:12:00,55.9,24.1,30.22,SSW,203,0.0,0.0,29,0.00,,,0.00,meteohub,2013-08-08 06:12:00,
2013-08-07 23:17:00,56.1,24.3,30.22,SSW,203,0.0,0.0,29,0.00,,,0.00,meteohub,2013-08-08 06:17:00,
2013-08-07 23:22:00,56.1,25.2,30.22,SSW,203,0.0,0.0,30,0.00,,,0.00,meteohub,2013-08-08 06:22:00,
2013-08-07 23:27:00,56.1,24.3,30.22,East,90,0.0,0.0,29,0.00,,,0.00,meteohub,2013-08-08 06:27:00,
2013-08-07 23:32:00,56.3,24.4,30.22,East,90,0.0,4.0,29,0.00,,,0.00,meteohub,2013-08-08 06:32:00,
2013-08-07 23:37:00,56.1,24.3,30.22,East,90,0.0,4.0,29,0.00,,,0.00,meteohub,2013-08-08 06:37:00,
2013-08-07 23:42:00,56.3,24.4,30.21,East,90,0.0,3.0,29,0.00,,,0.00,meteohub,2013-08-08 06:42:00,
2013-08-07 23:47:00,56.3,24.4,30.21,East,90,0.0,2.0,29,0.00,,,0.00,meteohub,2013-08-08 06:47:00,
2013-08-07 23:52:00,56.3,24.4,30.22,East,90,0.0,2.0,29,0.00,,,0.00,meteohub,2013-08-08 06:52:00,
2013-08-07 23:57:00,56.5,24.6,30.21,East,90,0.0,2.0,29,0.00,,,0.00,meteohub,2013-08-08 06:57:00,